[x] [x]
.:Aeroklub Partizánske:. |  .:Fotogaléria:. |  .:Videogaléria:. |  .:Foto týždňa:. |  .:Kniha návštev:. |  .:Linky:. |  .:Moje konto:.
 MENU [x]

 METEO [x]

 FotoGaléria [x]

 Slnko [x]
LZPT Partizánske
48°37'N 18°20'E
Východ: 7:37 AM
Západ: 3:54 PM
LZIB Bratislava
48°10'N 17°12'E
Východ: 7:39 AM
Západ: 4:00 PM
LZKZ Košice
48°39'N 21°14'E
Východ: 7:25 AM
Západ: 3:42 PM

 Jazyky [x]
Vyberte jazyk rozhrania:

Slovak English German Polish


  SPRÁVY METAR - ČESKÁ REPUBLIKA
Brno-TuřanyLKTB 230130Z 25013KT 9999 SCT036 08/04 Q1018 NOSIGdekóduj
ČáslavLKCV 230100Z 25015KT 9999 OVC034 09/07 Q1017 NOSIGdekóduj
HolešovLKHO 010800Z VRB03KT CAVOK 23/17 Q1019dekóduj
Hradec Královedekóduj
Karlovy VaryLKKV 230000Z 26019G35KT 9999 OVC007 05/04 Q1017dekóduj
KunoviceLKKU 221200Z 20009KT 9999 BKN034 07/03 Q1018dekóduj
LiberecLKLB 020602Z 16003KT 9999 FEW016 BKN043 M01/M02 Q1016dekóduj
Mariánsky Láznědekóduj
Náměšť nad OslavouLKNA 230100Z 28011G21KT 240V320 9999 FEW030 07/04 Q1017dekóduj
Ostrava-MošnovLKMT 230130Z 22013KT 9999 OVC027 08/03 Q1016 NOSIGdekóduj
PardubiceLKPD 230100Z 26019KT 9999 OVC027 09/05 Q1016dekóduj
Praha-KbelyLKKB 230100Z 24017KT CAVOK 08/05 Q1016dekóduj
Praha-RuzyněLKPR 230130Z 24021KT 9999 BKN019 07/05 Q1017 NOSIGdekóduj
PřerovLKPO 010000Z 05005KT CAVOK 04/01 Q1013dekóduj
 FreeFly INFO [x]
COROWA 2009


COROWA 2009


COROWA 2009



 LZPT webcam [x]

 Foto týždňa [x]

 KBO SNA [x]

 Login [x]
Užívateľské meno

Heslo


Ešte nemáš konto? Môžeš si ho vytvoriť. Registrovaný užívateľ má množstvo výhod, napr. posielanie okamžitých správ iným užívateľom, posielanie komentárov s vlastným menom, možnosť pridávať fotografie do galérie...

 Kto je online [x]
Momentálne je online 50 hostí a 0 členov.

Ste anonymný užívateľ. Zaregistrovať sa môžete tu

DETAILY

 Linky [x]

 Počítadlo návštev [x]
Zaznamenali sme
34585522
strán zobrazených od júna 2003

Počet dnešných unikátnych IP adries:
0



www.freefly.sk
Powered by SzMsoft ©2003-2005. Polish translations by Cezary Dąbek. Flying server www.freefly.sk is administrated by maro@freefly.sk - www.artweb.freefly.sk
PHP-Nuke Copyright © 2004 by Francisco Burzi. This is free software, and you may redistribute it under the GPL. PHP-Nuke comes with absolutely no warranty, for details, see the license.